Time;durP1;ratioP1;P1;durP2;ratioP2;P2;SDS_P1;SDS_P2;PMS_P1;PMS_P2;Temp;Humidity;BMP_temperature;BMP_pressure;BME280_temperature;BME280_humidity;BME280_pressure;Samples;Min_cycle;Max_cycle;Signal;HPM_P1;HPM_P2
2021/04/24 00:00:17;;;;;;;11.07;6.22;;;6.10;89.60;;;;;;5114129;28;20548;-68
2021/04/24 00:02:44;;;;;;;13.50;7.90;;;6.20;89.70;;;;;;5113990;28;20043;-67
2021/04/24 00:05:22;;;;;;;12.50;6.75;;;6.10;89.70;;;;;;5113491;28;20038;-67
2021/04/24 00:07:48;;;;;;;18.23;7.60;;;6.10;89.80;;;;;;5113655;28;20475;-68
2021/04/24 00:10:15;;;;;;;16.70;8.02;;;6.00;89.90;;;;;;5113850;28;20035;-67
2021/04/24 00:12:43;;;;;;;16.80;7.30;;;6.10;90.10;;;;;;5113816;28;20487;-68
2021/04/24 00:15:14;;;;;;;19.63;9.25;;;6.00;90.00;;;;;;5113270;28;20039;-67
2021/04/24 00:17:39;;;;;;;17.45;8.30;;;6.00;90.10;;;;;;5113635;28;20042;-67
2021/04/24 00:20:07;;;;;;;15.38;8.18;;;6.00;90.00;;;;;;5113855;28;20039;-68
2021/04/24 00:22:33;;;;;;;20.45;9.25;;;6.00;90.00;;;;;;5113797;28;20031;-68
2021/04/24 00:24:59;;;;;;;15.00;8.45;;;6.00;90.10;;;;;;5113219;28;20127;-67
2021/04/24 00:27:25;;;;;;;17.73;8.50;;;6.00;90.10;;;;;;5114135;28;20031;-68
2021/04/24 00:29:51;;;;;;;17.00;9.60;;;6.00;90.20;;;;;;5113470;28;20039;-68
2021/04/24 00:32:17;;;;;;;21.80;9.85;;;5.90;90.20;;;;;;5113790;28;20039;-67
2021/04/24 00:34:42;;;;;;;18.08;9.23;;;6.00;90.20;;;;;;5113366;28;20059;-67
2021/04/24 00:37:09;;;;;;;16.65;8.90;;;5.90;90.30;;;;;;5113730;28;20055;-68
2021/04/24 00:39:35;;;;;;;16.25;7.72;;;5.90;90.30;;;;;;5113434;28;20081;-68
2021/04/24 00:42:00;;;;;;;15.18;7.07;;;5.90;90.30;;;;;;5114081;28;20039;-67
2021/04/24 00:44:26;;;;;;;14.73;7.45;;;5.90;90.30;;;;;;5112987;28;20088;-67
2021/04/24 00:46:52;;;;;;;15.80;7.75;;;5.90;90.30;;;;;;5113114;28;20043;-68
2021/04/24 00:49:17;;;;;;;15.70;7.65;;;5.90;90.30;;;;;;5113536;28;20040;-67
2021/04/24 00:51:43;;;;;;;16.13;8.50;;;5.90;90.40;;;;;;5112264;28;20475;-67
2021/04/24 00:54:09;;;;;;;14.48;7.68;;;5.90;90.40;;;;;;5113793;28;20481;-67
2021/04/24 00:56:35;;;;;;;17.20;8.93;;;5.90;90.50;;;;;;5113035;28;20047;-67
2021/04/24 00:59:03;;;;;;;18.05;8.38;;;5.90;90.40;;;;;;5114205;28;20043;-67
2021/04/24 01:01:28;;;;;;;19.38;8.50;;;5.90;90.40;;;;;;5113329;28;20035;-67
2021/04/24 01:03:55;;;;;;;18.73;9.70;;;5.90;90.40;;;;;;5113351;28;20031;-67
2021/04/24 01:06:21;;;;;;;22.75;10.20;;;5.90;90.50;;;;;;5116525;28;20043;-67
2021/04/24 01:08:47;;;;;;;20.40;9.95;;;5.90;90.50;;;;;;5117485;28;20043;-67
2021/04/24 01:11:13;;;;;;;18.38;10.18;;;5.90;90.50;;;;;;5117004;28;20059;-68
2021/04/24 01:13:38;;;;;;;20.00;9.02;;;5.80;90.50;;;;;;5117115;28;20067;-67
2021/04/24 01:16:05;;;;;;;21.75;11.27;;;5.80;90.50;;;;;;5116520;28;20120;-67
2021/04/24 01:18:30;;;;;;;20.13;10.75;;;5.80;90.50;;;;;;5116980;28;20035;-67
2021/04/24 01:20:57;;;;;;;21.13;11.23;;;5.80;90.60;;;;;;5116913;28;20043;-67
2021/04/24 01:23:24;;;;;;;20.48;11.02;;;5.80;90.60;;;;;;5117196;28;20486;-67
2021/04/24 01:25:50;;;;;;;22.73;10.20;;;5.80;90.70;;;;;;5116332;28;20097;-67
2021/04/24 01:28:16;;;;;;;21.20;9.18;;;5.70;90.80;;;;;;5116581;28;20438;-67
2021/04/24 01:30:45;;;;;;;15.93;9.15;;;5.70;90.80;;;;;;5117013;28;20036;-66
2021/04/24 01:33:12;;;;;;;15.93;8.88;;;5.70;90.90;;;;;;5116770;28;20042;-66
2021/04/24 01:35:39;;;;;;;14.88;7.85;;;5.70;90.90;;;;;;5116536;28;20043;-66
2021/04/24 01:38:07;;;;;;;15.80;8.07;;;5.70;91.10;;;;;;5116940;28;20460;-66
2021/04/24 01:40:34;;;;;;;12.85;6.63;;;5.70;91.10;;;;;;5117291;28;20031;-66
2021/04/24 01:43:01;;;;;;;12.80;7.05;;;5.70;91.10;;;;;;5117319;27;20048;-66
2021/04/24 01:45:27;;;;;;;12.43;6.63;;;5.60;91.10;;;;;;5116119;28;20051;-66
2021/04/24 01:47:54;;;;;;;18.52;7.20;;;5.60;91.20;;;;;;5116491;28;20044;-66
2021/04/24 01:50:23;;;;;;;11.32;6.80;;;5.70;91.30;;;;;;5116292;28;20066;-66
2021/04/24 01:52:52;;;;;;;13.43;6.93;;;5.70;91.30;;;;;;5116783;28;20036;-66
2021/04/24 01:55:25;;;;;;;15.13;6.72;;;5.60;91.20;;;;;;5115844;28;20092;-66
2021/04/24 01:57:52;;;;;;;14.80;6.63;;;5.60;91.30;;;;;;5116071;28;20035;-66
2021/04/24 02:00:29;;;;;;;14.40;8.18;;;5.60;91.30;;;;;;5116523;28;20104;-66
2021/04/24 02:02:56;;;;;;;14.30;7.05;;;5.60;91.50;;;;;;5116710;28;20036;-66
2021/04/24 02:05:23;;;;;;;11.63;6.68;;;5.60;91.50;;;;;;5115773;28;20043;-66
2021/04/24 02:07:57;;;;;;;14.38;7.25;;;5.50;91.40;;;;;;5115936;28;20079;-66
2021/04/24 02:10:24;;;;;;;13.45;6.65;;;5.50;91.40;;;;;;5116030;28;20032;-66
2021/04/24 02:12:50;;;;;;;11.27;6.75;;;5.40;91.50;;;;;;5116229;28;20047;-66
2021/04/24 02:15:16;;;;;;;14.02;6.97;;;5.50;91.50;;;;;;5115308;28;20035;-66
2021/04/24 02:17:42;;;;;;;15.27;7.38;;;5.50;91.60;;;;;;5115894;28;20051;-66
2021/04/24 02:20:08;;;;;;;12.50;7.65;;;5.40;91.60;;;;;;5116308;28;20035;-66
2021/04/24 02:22:33;;;;;;;14.05;6.90;;;5.40;91.60;;;;;;5116456;28;20032;-66
2021/04/24 02:25:01;;;;;;;14.45;6.55;;;5.30;91.70;;;;;;5115321;28;20095;-66
2021/04/24 02:27:28;;;;;;;11.80;6.25;;;5.30;91.60;;;;;;5115642;28;20067;-66
2021/04/24 02:29:55;;;;;;;13.27;7.82;;;5.40;91.60;;;;;;5131793;27;20051;-66
2021/04/24 02:32:27;;;;;;;15.20;7.78;;;5.30;91.60;;;;;;5115433;28;20400;-66
2021/04/24 02:34:53;;;;;;;13.05;7.07;;;5.20;91.70;;;;;;5115542;28;20040;-66
2021/04/24 02:37:19;;;;;;;11.73;6.32;;;5.20;91.70;;;;;;5115525;28;20058;-66
2021/04/24 02:39:48;;;;;;;16.60;7.40;;;5.20;91.80;;;;;;5115538;28;20432;-66
2021/04/24 02:42:24;;;;;;;15.65;7.35;;;5.30;91.80;;;;;;5115342;28;20114;-66
2021/04/24 02:44:52;;;;;;;16.75;7.25;;;5.30;91.70;;;;;;5114998;28;20445;-66
2021/04/24 02:47:19;;;;;;;9.70;6.80;;;5.20;91.90;;;;;;5115664;28;20054;-66
2021/04/24 02:49:45;;;;;;;13.52;6.68;;;5.10;91.90;;;;;;5115289;28;20529;-66
2021/04/24 02:52:10;;;;;;;13.18;6.95;;;5.10;91.90;;;;;;5115016;28;20039;-66
2021/04/24 02:54:37;;;;;;;12.68;6.97;;;5.10;92.00;;;;;;5114786;28;20048;-66
2021/04/24 02:57:04;;;;;;;13.63;7.65;;;5.10;91.90;;;;;;5114865;28;20483;-66
2021/04/24 02:59:29;;;;;;;15.20;7.22;;;5.00;91.90;;;;;;5114831;28;20487;-66
2021/04/24 03:01:56;;;;;;;13.07;7.22;;;5.00;92.00;;;;;;5114754;28;20122;-66
2021/04/24 03:04:22;;;;;;;14.00;7.47;;;5.00;92.10;;;;;;5114835;28;20161;-66
2021/04/24 03:06:48;;;;;;;14.80;8.52;;;5.00;92.10;;;;;;5114339;28;20408;-66
2021/04/24 03:09:14;;;;;;;12.32;7.07;;;5.00;92.10;;;;;;5115086;28;20043;-66
2021/04/24 03:11:41;;;;;;;13.05;7.43;;;5.00;92.10;;;;;;5115301;28;20039;-66
2021/04/24 03:14:07;;;;;;;12.07;7.32;;;5.10;92.10;;;;;;5115253;28;20046;-66
2021/04/24 03:16:36;;;;;;;13.27;7.60;;;5.00;92.20;;;;;;5114146;28;20038;-66
2021/04/24 03:19:04;;;;;;;14.00;7.40;;;5.00;92.10;;;;;;5114465;28;20458;-66
2021/04/24 03:21:29;;;;;;;14.38;7.35;;;4.90;92.30;;;;;;5114615;28;20047;-66
2021/04/24 03:23:55;;;;;;;13.38;7.45;;;4.90;92.20;;;;;;5114957;28;20100;-66
2021/04/24 03:26:22;;;;;;;14.73;8.07;;;4.90;92.30;;;;;;5113984;28;20044;-66
2021/04/24 03:28:49;;;;;;;17.38;8.35;;;5.00;92.50;;;;;;5113796;28;20480;-66
2021/04/24 03:31:15;;;;;;;16.48;8.85;;;4.90;92.50;;;;;;5114890;28;20149;-66
2021/04/24 03:33:41;;;;;;;16.40;9.23;;;4.90;92.40;;;;;;5114416;27;20097;-66
2021/04/24 03:36:07;;;;;;;21.38;9.90;;;5.00;92.30;;;;;;5113944;28;20044;-66
2021/04/24 03:38:34;;;;;;;17.70;9.52;;;5.00;92.40;;;;;;5114766;28;20043;-66
2021/04/24 03:41:00;;;;;;;16.60;8.60;;;5.00;92.40;;;;;;5114089;28;20138;-66
2021/04/24 03:43:26;;;;;;;14.23;8.75;;;5.00;92.40;;;;;;5114007;28;20111;-66
2021/04/24 03:45:52;;;;;;;19.20;8.43;;;5.00;92.40;;;;;;5112594;28;20402;-66
2021/04/24 03:48:17;;;;;;;12.82;7.45;;;5.10;92.40;;;;;;5114494;28;20051;-66
2021/04/24 03:50:43;;;;;;;13.65;7.28;;;5.00;92.30;;;;;;5114269;28;20356;-66
2021/04/24 03:53:09;;;;;;;12.57;7.55;;;5.10;92.30;;;;;;5114089;28;20039;-66
2021/04/24 03:55:35;;;;;;;14.23;8.35;;;5.10;92.30;;;;;;5113600;28;20114;-66
2021/04/24 03:58:00;;;;;;;18.00;8.40;;;5.20;92.20;;;;;;5114649;28;20063;-66
2021/04/24 04:00:29;;;;;;;14.45;7.68;;;5.10;92.20;;;;;;5127755;27;20101;-66
2021/04/24 04:02:59;;;;;;;15.77;9.02;;;5.10;92.20;;;;;;5134484;27;20378;-66
2021/04/24 04:05:31;;;;;;;14.90;7.65;;;5.10;92.30;;;;;;5133896;27;20042;-66
2021/04/24 04:07:58;;;;;;;14.00;8.27;;;5.10;92.20;;;;;;5134120;27;20035;-66
2021/04/24 04:10:26;;;;;;;20.40;8.02;;;5.20;92.30;;;;;;5134265;27;20043;-66
2021/04/24 04:12:52;;;;;;;20.52;8.55;;;5.20;92.20;;;;;;5134861;27;20031;-66
2021/04/24 04:15:20;;;;;;;14.68;7.50;;;5.20;92.20;;;;;;5134013;27;20037;-66
2021/04/24 04:18:18;;;;;;;16.15;8.98;;;5.10;92.30;;;;;;5134439;27;20066;-66
2021/04/24 04:20:52;;;;;;;18.25;7.53;;;5.10;92.60;;;;;;5131768;27;20192;-66
2021/04/24 04:23:19;;;;;;;15.75;7.25;;;5.20;92.30;;;;;;5134109;27;20050;-66
2021/04/24 04:25:47;;;;;;;14.88;7.47;;;5.20;92.30;;;;;;5133658;27;20039;-66
2021/04/24 04:28:13;;;;;;;16.60;8.00;;;5.20;92.50;;;;;;5134121;27;20039;-66
2021/04/24 04:30:40;;;;;;;19.42;8.30;;;5.20;92.80;;;;;;5134494;27;20043;-66
2021/04/24 04:33:07;;;;;;;20.67;8.90;;;5.20;92.50;;;;;;5134036;27;20077;-66
2021/04/24 04:35:34;;;;;;;16.58;9.38;;;5.20;92.50;;;;;;5133736;27;20031;-66
2021/04/24 04:38:00;;;;;;;17.80;10.88;;;5.20;92.50;;;;;;5134102;27;20043;-66
2021/04/24 04:40:26;;;;;;;17.45;9.23;;;5.20;92.60;;;;;;5138561;27;20031;-66
2021/04/24 04:42:52;;;;;;;15.55;9.77;;;5.30;92.50;;;;;;5138222;27;20043;-66
2021/04/24 04:45:19;;;;;;;15.52;9.68;;;5.30;92.50;;;;;;5137673;27;20049;-66
2021/04/24 04:47:46;;;;;;;22.10;11.90;;;5.30;92.60;;;;;;5137877;27;20046;-66
2021/04/24 04:50:15;;;;;;;23.65;10.20;;;5.40;92.60;;;;;;5138870;27;20039;-66
2021/04/24 04:52:42;;;;;;;20.48;10.27;;;5.40;92.60;;;;;;5137875;27;20035;-66
2021/04/24 04:55:08;;;;;;;16.80;9.20;;;5.40;92.50;;;;;;5137883;27;20057;-66
2021/04/24 04:57:34;;;;;;;18.95;9.48;;;5.50;92.50;;;;;;5137858;27;20060;-66
2021/04/24 05:00:00;;;;;;;14.95;7.88;;;5.60;92.50;;;;;;5137834;27;20032;-66
2021/04/24 05:02:27;;;;;;;20.20;8.32;;;5.60;92.40;;;;;;5138344;27;20035;-66
2021/04/24 05:04:52;;;;;;;17.00;7.68;;;5.60;92.20;;;;;;5137825;27;20126;-66
2021/04/24 05:07:18;;;;;;;17.15;7.95;;;5.70;92.30;;;;;;5137271;27;20092;-66
2021/04/24 05:09:44;;;;;;;22.20;8.23;;;5.80;92.70;;;;;;5137913;27;20035;-66
2021/04/24 05:12:09;;;;;;;14.95;6.93;;;5.80;92.70;;;;;;5136837;27;20062;-66
2021/04/24 05:14:36;;;;;;;14.63;5.85;;;5.90;92.30;;;;;;5137594;27;20471;-66
2021/04/24 05:17:04;;;;;;;15.77;6.88;;;6.10;92.10;;;;;;5137360;27;20050;-66
2021/04/24 05:19:30;;;;;;;17.65;8.32;;;6.30;91.80;;;;;;5137966;27;20105;-66
2021/04/24 05:21:56;;;;;;;12.73;6.85;;;6.50;91.80;;;;;;5137409;27;20084;-66
2021/04/24 05:24:23;;;;;;;15.13;7.85;;;6.70;91.50;;;;;;5137454;27;20063;-66
2021/04/24 05:26:48;;;;;;;14.80;7.60;;;7.00;91.20;;;;;;5137090;27;20042;-66
2021/04/24 05:29:14;;;;;;;18.45;6.95;;;7.10;90.90;;;;;;5137741;27;20039;-66
2021/04/24 05:31:40;;;;;;;17.73;7.13;;;7.30;90.90;;;;;;5137085;27;20040;-66
2021/04/24 05:34:06;;;;;;;16.90;7.03;;;7.60;90.50;;;;;;5137070;27;20119;-66
2021/04/24 05:36:31;;;;;;;15.48;6.10;;;7.70;90.10;;;;;;5137082;27;20429;-66
2021/04/24 05:38:57;;;;;;;14.88;7.13;;;7.80;89.80;;;;;;5137139;27;20042;-66
2021/04/24 05:41:23;;;;;;;15.80;8.13;;;8.00;89.70;;;;;;5137392;27;20039;-66
2021/04/24 05:43:51;;;;;;;14.23;6.65;;;8.20;89.00;;;;;;5137007;27;20418;-66
2021/04/24 05:46:17;;;;;;;15.48;6.70;;;8.30;88.30;;;;;;5136543;27;20506;-66
2021/04/24 05:48:43;;;;;;;11.40;6.35;;;8.60;87.60;;;;;;5136407;27;20479;-66
2021/04/24 05:51:10;;;;;;;11.13;6.60;;;8.70;86.90;;;;;;5136436;27;20063;-66
2021/04/24 05:53:36;;;;;;;12.18;6.18;;;8.50;86.00;;;;;;5137255;27;20036;-66
2021/04/24 05:56:01;;;;;;;13.50;5.72;;;8.40;85.90;;;;;;5136568;27;20035;-66
2021/04/24 05:58:27;;;;;;;10.80;5.60;;;8.70;85.90;;;;;;5136752;27;20057;-67
2021/04/24 06:00:53;;;;;;;11.13;6.25;;;8.70;85.00;;;;;;5137236;27;20053;-67
2021/04/24 06:03:18;;;;;;;10.95;5.38;;;8.40;85.40;;;;;;5137275;27;20064;-67
2021/04/24 06:05:44;;;;;;;17.73;7.00;;;8.40;86.20;;;;;;5135088;27;20050;-66
2021/04/24 06:08:10;;;;;;;11.32;5.65;;;8.10;85.40;;;;;;5136807;27;20042;-67
2021/04/24 06:10:35;;;;;;;11.10;5.07;;;8.10;86.00;;;;;;5136735;27;20031;-67
2021/04/24 06:13:01;;;;;;;11.40;5.18;;;8.00;85.90;;;;;;5136976;27;20035;-67
2021/04/24 06:15:27;;;;;;;14.32;6.20;;;8.00;86.70;;;;;;5136211;27;20475;-67
2021/04/24 06:17:53;;;;;;;11.85;6.03;;;8.20;86.30;;;;;;5136259;27;20031;-67
2021/04/24 06:20:19;;;;;;;25.25;5.60;;;8.10;85.90;;;;;;5136371;27;20043;-67
2021/04/24 06:22:45;;;;;;;12.80;5.53;;;7.90;85.90;;;;;;5136224;27;20043;-67
2021/04/24 06:25:14;;;;;;;13.13;6.20;;;8.30;85.80;;;;;;5135987;27;20498;-67
2021/04/24 06:27:40;;;;;;;8.60;4.80;;;8.60;85.10;;;;;;5135976;27;20499;-67
2021/04/24 06:30:08;;;;;;;13.43;4.93;;;8.80;83.90;;;;;;5134884;27;20068;-67
2021/04/24 06:32:35;;;;;;;13.68;4.78;;;9.00;83.10;;;;;;5135983;27;20114;-67
2021/04/24 06:35:01;;;;;;;13.98;5.40;;;9.10;82.20;;;;;;5136040;27;20031;-67
2021/04/24 06:37:29;;;;;;;11.25;4.75;;;9.00;81.50;;;;;;5136171;27;20448;-67
2021/04/24 06:39:56;;;;;;;8.63;4.18;;;9.10;81.50;;;;;;5135978;27;20046;-67
2021/04/24 06:42:21;;;;;;;11.25;4.57;;;8.70;81.50;;;;;;5136437;27;20379;-67
2021/04/24 06:44:50;;;;;;;6.90;3.70;;;9.10;81.40;;;;;;5135522;27;20039;-68
2021/04/24 06:47:16;;;;;;;11.63;4.40;;;9.40;80.70;;;;;;5135649;27;20062;-68
2021/04/24 06:49:42;;;;;;;9.13;4.28;;;9.50;79.70;;;;;;5136047;27;20479;-68
2021/04/24 06:52:08;;;;;;;10.80;4.75;;;9.40;79.20;;;;;;5135691;27;20470;-66
2021/04/24 06:54:34;;;;;;;14.52;4.75;;;9.10;79.40;;;;;;5135829;27;20069;-66
2021/04/24 06:57:00;;;;;;;12.70;4.45;;;9.20;79.10;;;;;;5135665;27;20062;-67
2021/04/24 06:59:26;;;;;;;10.30;4.15;;;9.30;79.10;;;;;;5135438;27;20066;-67
2021/04/24 07:01:52;;;;;;;12.88;5.60;;;9.60;77.80;;;;;;5134366;27;20032;-67
2021/04/24 07:04:18;;;;;;;16.20;4.72;;;10.30;76.70;;;;;;5135347;27;20031;-67
2021/04/24 07:06:43;;;;;;;12.73;4.25;;;10.50;74.60;;;;;;5134802;27;20448;-68
2021/04/24 07:09:09;;;;;;;15.88;4.32;;;10.60;75.60;;;;;;5135273;27;20095;-68
2021/04/24 07:11:35;;;;;;;11.93;3.72;;;10.80;74.60;;;;;;5135411;27;20035;-67
2021/04/24 07:14:00;;;;;;;11.73;4.53;;;11.10;73.40;;;;;;5135861;27;20039;-68
2021/04/24 07:16:26;;;;;;;10.10;3.88;;;11.00;72.70;;;;;;5134953;27;20395;-67
2021/04/24 07:18:52;;;;;;;11.18;4.10;;;10.80;71.40;;;;;;5135326;27;20042;-67
2021/04/24 07:21:17;;;;;;;9.70;3.55;;;11.00;72.90;;;;;;5135330;27;20035;-67
2021/04/24 07:23:43;;;;;;;13.30;5.15;;;11.10;70.80;;;;;;5135724;27;20084;-68
2021/04/24 07:26:09;;;;;;;13.30;4.40;;;11.60;71.20;;;;;;5133385;27;20054;-68
2021/04/24 07:28:36;;;;;;;10.57;4.68;;;11.40;70.00;;;;;;5134855;27;20064;-68
2021/04/24 07:31:02;;;;;;;13.95;4.15;;;10.80;71.10;;;;;;5134929;27;20393;-68
2021/04/24 07:33:27;;;;;;;11.30;4.90;;;10.90;71.30;;;;;;5134875;27;20038;-67
2021/04/24 07:35:54;;;;;;;14.73;4.78;;;10.80;71.60;;;;;;5134542;27;20035;-68
2021/04/24 07:38:20;;;;;;;14.43;5.10;;;10.50;71.90;;;;;;5135345;27;20039;-67
2021/04/24 07:40:47;;;;;;;13.27;4.53;;;10.90;71.30;;;;;;5135347;27;20035;-67
2021/04/24 07:43:13;;;;;;;11.55;4.38;;;11.30;71.30;;;;;;5135293;27;20039;-68
2021/04/24 07:45:40;;;;;;;10.32;4.03;;;11.30;70.00;;;;;;5133348;27;20054;-68
2021/04/24 07:48:07;;;;;;;12.35;4.38;;;11.30;69.70;;;;;;5134787;27;20074;-68
2021/04/24 07:50:34;;;;;;;12.00;4.00;;;11.40;70.10;;;;;;5134707;27;20039;-68
2021/04/24 07:53:00;;;;;;;19.65;4.03;;;11.20;68.30;;;;;;5134568;27;20542;-68
2021/04/24 07:55:27;;;;;;;13.05;4.05;;;10.90;69.70;;;;;;5134558;27;20035;-68
2021/04/24 07:57:52;;;;;;;9.95;3.88;;;11.00;70.40;;;;;;5134192;27;20043;-68
2021/04/24 08:00:19;;;;;;;15.85;4.28;;;11.10;70.10;;;;;;5133304;27;20054;-68
2021/04/24 08:02:49;;;;;;;12.27;4.35;;;10.80;69.50;;;;;;5133738;27;20039;-68
2021/04/24 08:05:18;;;;;;;12.48;3.67;;;10.70;69.50;;;;;;5134594;27;20039;-68
2021/04/24 08:07:44;;;;;;;14.48;4.10;;;10.90;70.70;;;;;;5134075;27;20039;-68
2021/04/24 08:10:12;;;;;;;14.23;4.75;;;11.20;70.40;;;;;;5134220;27;20043;-68
2021/04/24 08:12:38;;;;;;;11.05;4.53;;;11.10;69.70;;;;;;5134330;27;20371;-68
2021/04/24 08:15:08;;;;;;;10.02;3.88;;;11.40;68.80;;;;;;5133620;27;20070;-68
2021/04/24 08:17:34;;;;;;;15.68;4.03;;;11.50;67.80;;;;;;5134251;27;20039;-68
2021/04/24 08:20:00;;;;;;;13.50;3.20;;;11.70;67.30;;;;;;5134434;27;20150;-68
2021/04/24 08:22:26;;;;;;;11.80;4.13;;;11.70;66.50;;;;;;5134824;28;20053;-68
2021/04/24 08:24:52;;;;;;;13.15;4.05;;;12.10;67.20;;;;;;5134332;27;20042;-68
2021/04/24 08:27:18;;;;;;;12.60;4.32;;;11.40;67.10;;;;;;5133948;27;20031;-68
2021/04/24 08:29:44;;;;;;;9.20;3.58;;;11.60;66.80;;;;;;5134626;27;20475;-67
2021/04/24 08:32:10;;;;;;;14.07;3.65;;;11.60;66.60;;;;;;5134447;27;20113;-68
2021/04/24 08:34:35;;;;;;;14.68;4.28;;;11.80;65.90;;;;;;5133988;27;20157;-68
2021/04/24 08:37:02;;;;;;;10.55;3.47;;;12.30;65.90;;;;;;5134132;27;20043;-68
2021/04/24 08:39:28;;;;;;;14.70;4.10;;;12.20;64.90;;;;;;5134457;27;20057;-67
2021/04/24 08:41:54;;;;;;;9.23;4.13;;;12.20;65.40;;;;;;5134449;27;20042;-68
2021/04/24 08:44:20;;;;;;;18.08;4.10;;;12.00;65.00;;;;;;5134264;27;20043;-68
2021/04/24 08:46:50;;;;;;;13.88;3.55;;;12.30;65.00;;;;;;5133670;27;20043;-68
2021/04/24 08:49:20;;;;;;;12.85;4.32;;;12.80;64.30;;;;;;5133918;27;20125;-68
2021/04/24 08:51:46;;;;;;;13.45;4.25;;;12.90;64.40;;;;;;5134378;27;20073;-68
2021/04/24 08:54:12;;;;;;;9.75;3.72;;;12.50;64.20;;;;;;5134387;27;20031;-68
2021/04/24 08:56:38;;;;;;;13.30;4.35;;;12.80;64.40;;;;;;5133636;27;20100;-68
2021/04/24 08:59:04;;;;;;;10.50;3.60;;;12.40;62.60;;;;;;5134399;27;20041;-68
2021/04/24 09:01:29;;;;;;;9.38;3.35;;;13.10;62.90;;;;;;5134030;27;20047;-68
2021/04/24 09:03:55;;;;;;;14.90;3.65;;;12.60;61.00;;;;;;5134045;27;20050;-68
2021/04/24 09:06:22;;;;;;;12.43;3.67;;;13.00;61.80;;;;;;5133497;27;20031;-68
2021/04/24 09:08:54;;;;;;;14.52;3.65;;;12.20;61.40;;;;;;5132568;28;20146;-68
2021/04/24 09:11:20;;;;;;;13.85;3.38;;;12.50;61.30;;;;;;5134053;27;20046;-68
2021/04/24 09:14:08;;;;;;;12.70;3.17;;;12.90;62.50;;;;;;5133945;27;20061;-68
2021/04/24 09:16:35;;;;;;;10.77;3.28;;;13.30;60.30;;;;;;5132321;28;20043;-68
2021/04/24 09:19:02;;;;;;;7.68;2.80;;;13.50;60.20;;;;;;5134239;27;20065;-68
2021/04/24 09:21:30;;;;;;;7.10;2.58;;;13.40;57.60;;;;;;5133657;27;20038;-68
2021/04/24 09:23:56;;;;;;;10.80;3.35;;;12.80;57.40;;;;;;5133874;27;20477;-68
2021/04/24 09:26:27;;;;;;;10.20;2.75;;;13.10;59.60;;;;;;5135646;27;20035;-68
2021/04/24 09:29:04;;;;;;;9.07;3.28;;;13.10;57.40;;;;;;5137372;27;20042;-68
2021/04/24 09:31:32;;;;;;;11.65;3.55;;;13.00;57.10;;;;;;5137410;27;20394;-68
2021/04/24 09:34:00;;;;;;;8.45;2.67;;;13.00;58.30;;;;;;5137270;27;20035;-68
2021/04/24 09:36:37;;;;;;;6.35;1.85;;;13.00;56.50;;;;;;5136953;27;20047;-68
2021/04/24 09:39:09;;;;;;;8.52;2.05;;;12.90;51.70;;;;;;5137702;27;20043;-68
2021/04/24 09:41:37;;;;;;;8.18;2.60;;;12.60;53.80;;;;;;5137776;27;20035;-68
2021/04/24 09:44:10;;;;;;;8.15;2.22;;;12.80;55.10;;;;;;5136804;27;20043;-68
2021/04/24 09:46:48;;;;;;;5.53;1.55;;;12.60;53.10;;;;;;5135438;27;20039;-68
2021/04/24 09:49:24;;;;;;;4.38;1.95;;;12.60;52.00;;;;;;5137441;27;20047;-68
2021/04/24 09:51:56;;;;;;;6.35;1.77;;;12.50;48.80;;;;;;5137282;27;20152;-68
2021/04/24 09:54:35;;;;;;;6.22;1.88;;;12.40;50.20;;;;;;5137370;27;20093;-68
2021/04/24 09:57:08;;;;;;;8.48;1.52;;;12.30;50.00;;;;;;5136655;27;20412;-68
2021/04/24 09:59:54;;;;;;;6.78;1.48;;;12.10;50.00;;;;;;5137106;27;20509;-68
2021/04/24 10:02:40;;;;;;;6.40;1.73;;;12.30;46.80;;;;;;5136294;27;20051;-68
2021/04/24 10:05:08;;;;;;;6.25;1.45;;;12.30;48.90;;;;;;5136380;27;20043;-68
2021/04/24 10:07:36;;;;;;;5.88;1.70;;;12.30;49.10;;;;;;5135414;27;20074;-68
2021/04/24 10:10:04;;;;;;;7.22;1.52;;;12.50;48.10;;;;;;5136815;27;20064;-68
2021/04/24 10:12:30;;;;;;;5.72;1.75;;;12.60;47.40;;;;;;5136422;27;20035;-68
2021/04/24 10:14:56;;;;;;;5.63;1.25;;;12.20;45.60;;;;;;5136010;27;20060;-68
2021/04/24 10:17:22;;;;;;;5.47;1.85;;;12.00;46.00;;;;;;5135340;27;20562;-71
2021/04/24 10:19:49;;;;;;;3.63;1.48;;;11.90;46.00;;;;;;5134877;27;20121;-71
2021/04/24 10:22:17;;;;;;;4.75;1.95;;;12.00;47.60;;;;;;5134765;27;20380;-72
2021/04/24 10:24:43;;;;;;;4.85;1.52;;;11.80;47.70;;;;;;5134749;27;20070;-72
2021/04/24 10:27:11;;;;;;;5.25;1.60;;;12.00;48.90;;;;;;5134669;27;20062;-72
2021/04/24 10:29:38;;;;;;;6.63;2.38;;;12.20;49.40;;;;;;5134981;27;20084;-72
2021/04/24 10:32:07;;;;;;;4.53;2.08;;;12.30;49.60;;;;;;5134999;27;20035;-71
2021/04/24 10:34:33;;;;;;;5.75;1.70;;;11.80;48.80;;;;;;5134616;27;20372;-72
2021/04/24 10:36:58;;;;;;;5.22;1.95;;;11.90;49.30;;;;;;5135742;27;20114;-71
2021/04/24 10:39:29;;;;;;;5.10;1.90;;;12.10;50.00;;;;;;5135844;27;20114;-71
2021/04/24 10:41:59;;;;;;;6.35;2.17;;;11.90;48.60;;;;;;5136421;27;20403;-71
2021/04/24 10:44:50;;;;;;;9.40;1.77;;;12.00;48.90;;;;;;5135716;27;20046;-72
2021/04/24 10:47:43;;;;;;;6.90;1.70;;;11.80;49.10;;;;;;5136063;27;20035;-71
2021/04/24 10:50:12;;;;;;;9.63;2.13;;;11.80;49.20;;;;;;5135916;27;20050;-71
2021/04/24 10:52:39;;;;;;;8.00;2.60;;;11.90;50.60;;;;;;5136178;27;20039;-71
2021/04/24 10:55:24;;;;;;;8.20;1.77;;;12.00;51.50;;;;;;5135321;27;20045;-71
2021/04/24 10:57:59;;;;;;;4.32;1.63;;;11.80;51.10;;;;;;5135548;27;20039;-71
2021/04/24 11:00:47;;;;;;;6.80;1.90;;;11.50;50.80;;;;;;5115342;27;20043;-71
2021/04/24 11:03:35;;;;;;;3.20;1.38;;;11.50;50.40;;;;;;5114848;28;20043;-71
2021/04/24 11:06:11;;;;;;;4.38;1.55;;;11.50;50.00;;;;;;5114707;28;20483;-71
2021/04/24 11:08:38;;;;;;;4.68;1.92;;;11.40;50.60;;;;;;5115049;28;20040;-71
2021/04/24 11:11:10;;;;;;;5.72;1.95;;;11.30;52.30;;;;;;5114904;27;20031;-71
2021/04/24 11:13:38;;;;;;;6.05;1.80;;;11.40;52.60;;;;;;5114754;28;20138;-72
2021/04/24 11:16:07;;;;;;;5.95;1.90;;;11.60;51.70;;;;;;5114401;28;20467;-72
2021/04/24 11:18:35;;;;;;;6.90;1.75;;;11.70;50.50;;;;;;5113805;28;20043;-71
2021/04/24 11:21:08;;;;;;;8.07;1.95;;;11.80;50.20;;;;;;5114692;28;20035;-72
2021/04/24 11:23:39;;;;;;;6.03;1.50;;;11.70;50.50;;;;;;5114823;28;20107;-70
2021/04/24 11:26:08;;;;;;;4.53;1.58;;;11.70;50.30;;;;;;5113016;28;20055;-71
2021/04/24 11:28:54;;;;;;;5.20;1.52;;;11.60;49.20;;;;;;5114449;28;20047;-72
2021/04/24 11:31:42;;;;;;;7.90;1.92;;;11.40;50.20;;;;;;5114772;28;20039;-73
2021/04/24 11:34:27;;;;;;;5.28;1.60;;;11.30;50.70;;;;;;5114347;28;20039;-73
2021/04/24 11:37:11;;;;;;;8.00;1.55;;;11.40;50.10;;;;;;5114665;28;20077;-73
2021/04/24 11:39:38;;;;;;;7.97;1.80;;;11.30;49.20;;;;;;5113451;28;20070;-73
2021/04/24 11:42:35;;;;;;;6.75;1.77;;;11.40;50.70;;;;;;5114272;28;20043;-73
2021/04/24 11:45:01;;;;;;;3.65;1.88;;;11.40;50.30;;;;;;5105525;28;20047;-73
2021/04/24 11:47:50;;;;;;;4.35;2.00;;;11.20;50.20;;;;;;5113933;28;20131;-73
2021/04/24 11:50:19;;;;;;;5.88;1.77;;;11.40;50.10;;;;;;5114301;28;20044;-73
2021/04/24 11:52:54;;;;;;;8.75;2.00;;;11.40;49.50;;;;;;5114214;27;20479;-72
2021/04/24 11:55:20;;;;;;;6.47;1.98;;;11.40;49.00;;;;;;5114008;28;20115;-73
2021/04/24 11:57:46;;;;;;;6.43;2.22;;;11.60;49.90;;;;;;5113916;28;20058;-72
2021/04/24 12:00:15;;;;;;;6.55;1.85;;;11.70;51.10;;;;;;5113877;28;20035;-72
2021/04/24 12:02:46;;;;;;;4.50;1.55;;;11.50;49.50;;;;;;5114075;28;20031;-72
2021/04/24 12:05:12;;;;;;;6.65;1.92;;;11.20;50.90;;;;;;5113862;28;20040;-72
2021/04/24 12:07:39;;;;;;;6.10;1.67;;;11.30;51.80;;;;;;5113473;28;20035;-73
2021/04/24 12:10:07;;;;;;;9.52;2.13;;;11.10;52.00;;;;;;5114411;28;20044;-72
2021/04/24 12:12:37;;;;;;;11.23;2.10;;;11.40;50.80;;;;;;5114161;28;20156;-73
2021/04/24 12:15:04;;;;;;;6.07;1.90;;;11.30;51.70;;;;;;5112457;28;20035;-73
2021/04/24 12:17:30;;;;;;;11.15;1.88;;;11.50;51.70;;;;;;5113812;28;20039;-72
2021/04/24 12:19:56;;;;;;;8.15;2.00;;;11.20;51.10;;;;;;5112419;28;20448;-72
2021/04/24 12:22:22;;;;;;;4.75;1.58;;;11.30;51.30;;;;;;5114283;28;20077;-72
2021/04/24 12:24:56;;;;;;;5.68;2.40;;;11.00;52.00;;;;;;5113858;28;20036;-73
2021/04/24 12:27:42;;;;;;;8.02;2.30;;;11.10;52.80;;;;;;5113868;28;20176;-73
2021/04/24 12:30:24;;;;;;;9.98;2.50;;;11.10;51.70;;;;;;5113474;28;20092;-72
2021/04/24 12:32:55;;;;;;;7.07;2.30;;;11.40;52.10;;;;;;5113708;28;20388;-73
2021/04/24 12:35:28;;;;;;;6.45;1.70;;;11.50;52.60;;;;;;5113421;28;20036;-72
2021/04/24 12:38:12;;;;;;;5.22;1.80;;;11.30;52.50;;;;;;5114062;28;20044;-72
2021/04/24 12:40:39;;;;;;;7.57;1.95;;;11.20;52.80;;;;;;5113952;28;20032;-72
2021/04/24 12:43:11;;;;;;;6.43;1.83;;;11.20;52.60;;;;;;5113333;28;20084;-72
2021/04/24 12:45:39;;;;;;;5.70;2.25;;;11.00;53.10;;;;;;5113457;28;20035;-72
2021/04/24 12:48:11;;;;;;;10.80;2.50;;;11.10;54.20;;;;;;5113472;28;20432;-73
2021/04/24 12:50:39;;;;;;;5.70;1.88;;;11.10;53.00;;;;;;5113734;28;20067;-72